Latest Weather Observations for Mount Crawford

IDS60801

Issued at 3:42 pm CST Saturday 4 July 2020 (issued every 10 minutes, with the page automatically refreshed every 10 minutes)

About weather observations | Map of weather stations | Latest weather observations for SA | Other Formats
Station Details ID: 023878 Name: MOUNT CRAWFORD AWS Lat: -34.73 Lon: 138.93 Height: 525.0 m
Data from the previous 72 hours. | See also: Recent months at Mount Crawford
Date/Time
CST
Temp
°C
App
Temp
°C
Dew
Point
°C
Rel
Hum
%
Delta-T
°C
Wind Press
QNH
hPa
Press
MSL
hPa
Rain since
9am
mm
Dir  Spd
km/h
Gust
km/h
Spd
kts
Gust
kts
04/03:30pm 10.0 6.8 10.0 100 0.0 W 17 24 9 13 1028.8 1029.4 0.0
04/03:00pm 10.4 7.3 10.4 100 0.0 WSW 17 28 9 15 1028.7 1029.3 0.0
04/02:30pm 10.3 6.8 10.3 100 0.0 W 19 26 10 14 1028.7 1029.3 0.0
04/02:00pm 10.6 - - - - W 13 22 7 12 1029.0 1029.6 0.0
04/01:30pm 10.2 - - - - WSW 20 32 11 17 1029.1 1029.7 0.0
04/01:00pm 9.0 - - - - WSW 19 28 10 15 1029.4 1029.9 0.0
04/12:30pm 8.7 - - - - W 17 24 9 13 1029.8 1030.4 0.0
04/12:00pm 8.3 - - - - W 17 24 9 13 1030.0 1030.6 0.0
04/11:30am 8.3 - - - - W 19 24 10 13 1030.3 1030.9 0.0
04/11:00am 8.5 - - - - WSW 17 28 9 15 1030.3 1030.9 0.0
04/10:30am 8.3 - - - - WSW 19 28 10 15 1030.3 1030.9 0.0
04/10:00am 7.8 - - - - W 17 26 9 14 1030.2 1030.8 0.0
04/09:30am 7.4 - - - - W 17 28 9 15 1030.0 1030.6 0.0
04/09:00am 7.1 - - - - WSW 19 28 10 15 1029.8 1030.4 2.8
04/08:30am 6.8 - - - - W 15 20 8 11 1029.6 1030.2 2.6
04/08:00am 6.6 - - - - W 17 28 9 15 1029.4 1029.9 2.6
04/07:30am 6.3 - - - - W 15 22 8 12 1029.1 1029.7 2.6
04/07:00am 6.1 - - - - W 17 24 9 13 1029.0 1029.6 2.4
04/06:30am 5.9 - - - - W 13 20 7 11 1029.0 1029.6 2.4
04/06:00am 5.9 - - - - W 17 24 9 13 1028.8 1029.4 2.4
04/05:30am 5.8 - - - - W 17 24 9 13 1028.6 1029.2 2.4
04/05:00am 5.7 - - - - WSW 15 24 8 13 1028.5 1029.1 2.4
04/04:30am 5.7 1.1 5.7 100 0.0 WSW 19 30 10 16 1028.5 1029.1 2.4
04/04:00am 5.6 1.4 5.6 100 0.0 WSW 17 24 9 13 1028.7 1029.3 2.4
04/03:30am 5.5 1.6 5.5 100 0.0 WSW 15 22 8 12 1028.6 1029.2 2.2
04/03:00am 5.3 1.4 5.3 100 0.0 WSW 15 19 8 10 1028.6 1029.2 2.2
04/02:30am 5.2 0.9 5.2 100 0.0 WSW 17 28 9 15 1028.5 1029.1 2.2
04/02:00am 4.9 0.5 4.9 100 0.0 WSW 17 22 9 12 1028.6 1029.2 2.2
04/01:30am 4.6 0.5 4.6 100 0.0 WSW 15 20 8 11 1028.4 1029.0 2.2
04/01:00am 4.7 0.7 4.7 100 0.0 WSW 15 20 8 11 1028.4 1029.0 2.2
04/12:30am 4.8 0.4 4.8 100 0.0 WSW 17 19 9 10 1028.4 1029.0 2.2
04/12:00am 4.8 1.2 4.8 100 0.0 WSW 13 19 7 10 1028.6 1029.2 2.2
 
Date/Time
CST
Temp
°C
App
Temp
°C
Dew
Point
°C
Rel
Hum
%
Delta-T
°C
Wind Press
QNH
hPa
Press
MSL
hPa
Rain since
9am
mm
Dir  Spd
km/h
Gust
km/h
Spd
kts
Gust
kts
03/11:30pm 5.0 1.8 5.0 100 0.0 SW 11 17 6 9 1028.7 1029.3 2.2
03/11:00pm 4.9 1.3 4.9 100 0.0 WSW 13 19 7 10 1028.7 1029.3 2.2
03/10:30pm 5.2 1.6 5.2 100 0.0 WSW 13 15 7 8 1028.5 1029.1 2.2
03/10:00pm 5.4 1.9 5.4 100 0.0 WSW 13 19 7 10 1028.4 1029.0 2.2
03/09:30pm 6.1 1.6 6.1 100 0.0 WSW 19 33 10 18 1028.1 1028.7 2.2
03/09:00pm 6.1 2.0 6.1 100 0.0 WSW 17 24 9 13 1028.1 1028.7 2.2
03/08:30pm 6.3 2.2 6.3 100 0.0 WSW 17 26 9 14 1028.0 1028.6 2.2
03/08:00pm 6.2 2.1 6.2 100 0.0 SW 17 22 9 12 1027.8 1028.4 2.2
03/07:30pm 6.0 1.9 6.0 100 0.0 WSW 17 26 9 14 1027.5 1028.0 2.2
03/07:00pm 6.2 2.1 6.2 100 0.0 SW 17 24 9 13 1027.1 1027.7 2.2
03/06:30pm 6.6 2.6 6.6 100 0.0 SW 17 20 9 11 1027.0 1027.6 2.2
03/06:00pm 6.4 2.0 6.4 100 0.0 SW 19 28 10 15 1026.6 1027.2 2.2
03/05:30pm 6.8 2.5 6.8 100 0.0 WSW 19 24 10 13 1026.3 1026.9 2.2
03/05:00pm 7.4 3.0 7.4 100 0.0 WSW 20 33 11 18 1025.7 1026.2 2.2
03/04:30pm 7.8 4.1 7.8 100 0.0 WSW 17 26 9 14 1025.3 1025.8 2.2
03/04:00pm 8.2 3.2 8.2 100 0.0 WSW 24 32 13 17 1024.5 1025.1 2.2
03/03:30pm 8.8 4.4 8.8 100 0.0 SW 22 37 12 20 1024.3 1024.8 2.2
03/03:00pm 8.6 - - - - WSW 22 33 12 18 1024.0 1024.5 2.2
03/02:30pm 8.8 - - - - WSW 26 43 14 23 1024.0 1024.5 2.2
03/02:00pm 8.7 - - - - WSW 24 37 13 20 1023.5 1024.0 2.2
03/01:30pm 8.6 - - - - WSW 20 32 11 17 1023.3 1023.8 2.0
03/01:00pm 9.1 - - - - WSW 26 46 14 25 1023.0 1023.6 2.0
03/12:55pm 8.5 - - - - WSW 28 48 15 26 1022.9 1023.5 2.0
03/12:30pm 8.5 - - - - WSW 24 41 13 22 1023.2 1023.7 2.0
03/12:00pm 8.7 - - - - W 28 46 15 25 1022.9 1023.5 2.0
03/11:59am 8.7 - - - - WSW 28 46 15 25 1022.8 1023.3 2.0
03/11:30am 8.5 - - - - WSW 24 41 13 22 1023.3 1023.8 2.0
03/11:00am 8.2 - - - - WSW 30 54 16 29 1022.7 1023.2 2.0
03/10:32am 8.4 - - - - W 33 54 18 29 1022.2 1022.7 1.8
03/10:30am 8.5 - - - - W 32 46 17 25 1022.4 1022.9 1.8
03/10:26am 8.4 - - - - W 32 50 17 27 1022.5 1023.0 1.6
03/10:00am 8.0 - - - - W 32 44 17 24 1022.4 1022.9 1.4
03/09:30am 7.7 - - - - WNW 33 46 18 25 1021.9 1022.4 0.8
03/09:00am 7.3 - - - - W 24 33 13 18 1021.8 1022.3 8.8
03/08:30am 7.1 - - - - WNW 28 44 15 24 1021.6 1022.1 7.0
03/08:00am 7.1 - - - - WNW 24 35 13 19 1021.3 1021.7 4.2
03/07:30am 6.9 - - - - WNW 30 46 16 25 1020.9 1021.4 4.0
03/07:00am 7.0 - - - - WNW 32 41 17 22 1020.7 1021.2 3.4
03/06:30am 6.5 0.4 6.5 100 0.0 W 28 41 15 22 1020.4 1020.9 3.2
03/06:00am 6.6 0.1 6.6 100 0.0 WNW 30 46 16 25 1020.2 1020.7 2.4
03/05:39am 6.7 0.6 6.7 100 0.0 WNW 28 46 15 25 1020.0 1020.5 2.0
03/05:30am 6.6 -0.3 6.6 100 0.0 WNW 32 44 17 24 1020.1 1020.6 2.0
03/05:00am 6.3 -0.2 6.3 100 0.0 WNW 30 37 16 20 1020.0 1020.5 2.0
03/04:30am 6.3 -0.6 6.3 100 0.0 WNW 32 44 17 24 1019.8 1020.3 2.0
03/04:00am 6.2 -0.4 6.2 100 0.0 WNW 30 41 16 22 1019.8 1020.3 1.6
03/03:30am 6.0 0.1 6.0 100 0.0 WNW 26 37 14 20 1020.0 1020.5 1.6
03/03:00am 5.7 -0.2 5.7 100 0.0 WNW 26 35 14 19 1020.2 1020.7 1.4
03/02:30am 5.6 0.0 5.6 100 0.0 WNW 24 35 13 19 1020.4 1020.9 1.4
03/02:00am 5.4 -0.2 5.4 100 0.0 WNW 24 33 13 18 1020.3 1020.8 1.4
03/01:30am 5.4 0.6 5.4 100 0.0 WNW 20 30 11 16 1020.3 1020.8 1.4
03/01:00am 5.5 0.7 5.5 100 0.0 WNW 20 28 11 15 1020.3 1020.8 1.2
03/12:30am 5.6 0.0 5.6 100 0.0 WNW 24 30 13 16 1020.4 1020.9 1.2
03/12:00am 5.8 0.3 5.8 100 0.0 WNW 24 30 13 16 1020.4 1020.9 1.2
 
Date/Time
CST
Temp
°C
App
Temp
°C
Dew
Point
°C
Rel
Hum
%
Delta-T
°C
Wind Press
QNH
hPa
Press
MSL
hPa
Rain since
9am
mm
Dir  Spd
km/h
Gust
km/h
Spd
kts
Gust
kts
02/11:30pm 6.0 0.1 6.0 100 0.0 WNW 26 33 14 18 1020.5 1021.0 1.2
02/11:00pm 5.9 0.4 5.9 100 0.0 WNW 24 32 13 17 1020.5 1021.0 1.2
02/10:30pm 5.8 0.3 5.8 100 0.0 WNW 24 33 13 18 1020.5 1021.0 1.2
02/10:00pm 5.7 0.5 5.7 100 0.0 WNW 22 30 12 16 1020.3 1020.8 1.2
02/09:30pm 5.7 0.5 5.7 100 0.0 WNW 22 33 12 18 1020.2 1020.7 1.2
02/09:00pm 5.7 0.2 5.7 100 0.0 W 24 32 13 17 1020.0 1020.5 1.2
02/08:30pm 5.6 -0.3 5.6 100 0.0 WNW 26 33 14 18 1019.8 1020.3 1.2
02/08:00pm 5.6 0.0 5.6 100 0.0 W 24 30 13 16 1019.5 1019.9 1.2
02/07:30pm 5.6 0.8 5.6 100 0.0 W 20 28 11 15 1019.2 1019.6 1.2
02/07:00pm 5.8 0.3 5.8 100 0.0 W 24 32 13 17 1018.8 1019.3 1.2
02/06:30pm 5.8 0.3 5.8 100 0.0 W 24 32 13 17 1018.6 1019.1 1.2
02/06:00pm 6.0 0.1 6.0 100 0.0 W 26 37 14 20 1018.3 1018.8 1.2
02/05:30pm 5.9 0.4 5.9 100 0.0 W 24 35 13 19 1018.0 1018.4 1.0
02/05:00pm 5.9 0.4 5.9 100 0.0 W 24 33 13 18 1017.8 1018.2 1.0
02/04:30pm 6.5 0.0 6.5 100 0.0 W 30 52 16 28 1017.6 1018.0 0.8
02/04:29pm 6.5 0.4 6.5 100 0.0 W 28 48 15 26 1017.7 1018.1 0.8
02/04:00pm 6.5 1.1 6.5 100 0.0 W 24 32 13 17 1017.4 1017.8 0.2
02/03:30pm 6.6 0.5 6.6 100 0.0 W 28 37 15 20 1017.3 1017.7 0.2
02/03:11pm 7.1 -0.2 7.1 100 0.0 W 35 59 19 32 1016.8 1017.3 0.0
02/03:00pm 8.4 1.8 8.4 100 0.0 W 33 50 18 27 1016.6 1017.1 0.0
02/02:39pm 8.5 1.9 7.9 96 0.3 WNW 32 50 17 27 1016.5 1017.0 0.0
02/02:30pm 8.2 2.0 7.8 97 0.2 W 30 46 16 25 1016.6 1017.1 0.0
02/02:12pm 8.4 1.9 8.1 98 0.1 W 32 50 17 27 1016.6 1017.1 0.0
02/02:00pm 8.5 2.0 8.1 97 0.2 W 32 48 17 26 1016.4 1016.8 0.0
02/01:30pm 7.9 0.2 7.0 94 0.4 W 37 56 20 30 1016.2 1016.6 0.0
02/01:01pm 8.0 0.4 7.7 98 0.1 W 37 56 20 30 1016.2 1016.6 0.0
02/01:00pm 8.0 0.1 7.7 98 0.1 W 39 56 21 30 1016.3 1016.7 0.0
02/12:36pm 8.3 1.3 8.3 100 0.0 W 35 54 19 29 1016.2 1016.6 0.0
02/12:30pm 8.4 1.8 8.4 100 0.0 W 33 50 18 27 1016.2 1016.6 0.0
02/12:21pm 8.2 1.7 8.2 100 0.0 W 32 50 17 27 1016.2 1016.6 0.0
02/12:00pm 7.3 0.0 7.3 100 0.0 WNW 35 50 19 27 1016.4 1016.8 0.0
02/11:30am 7.1 - - - - WNW 28 46 15 25 1016.8 1017.3 0.0
02/11:28am 7.2 - - - - WNW 28 46 15 25 1016.8 1017.3 0.0
02/11:00am 6.6 - - - - WNW 30 39 16 21 1016.6 1017.1 0.0
02/10:30am 6.6 - - - - WNW 26 41 14 22 1016.7 1017.2 0.0
02/10:00am 6.4 1.8 6.4 100 0.0 WNW 20 32 11 17 1016.6 1017.1 0.0
02/09:30am 6.1 1.0 6.1 100 0.0 WNW 22 33 12 18 1016.1 1016.5 0.0
02/09:00am 5.8 0.7 5.8 100 0.0 WNW 22 30 12 16 1015.8 1016.2 14.2
02/08:30am 5.7 0.2 5.7 100 0.0 WNW 24 35 13 19 1015.5 1015.9 14.2
02/08:00am 5.4 0.2 5.4 100 0.0 WNW 22 32 12 17 1015.1 1015.5 14.2
02/07:30am 5.1 -0.2 5.1 100 0.0 WNW 22 30 12 16 1014.7 1015.1 14.2
02/07:00am 5.5 -0.1 5.5 100 0.0 WNW 24 32 13 17 1014.2 1014.6 14.2
02/06:30am 5.5 0.9 5.5 100 0.0 WNW 19 28 10 15 1014.1 1014.5 14.2
02/06:00am 5.2 0.5 5.2 100 0.0 WNW 19 26 10 14 1013.8 1014.2 14.2
02/05:30am 5.8 0.7 5.8 100 0.0 WNW 22 39 12 21 1013.3 1013.7 14.2
02/05:00am 5.8 1.0 5.8 100 0.0 W 20 35 11 19 1013.1 1013.4 14.2
02/04:30am 5.9 0.8 5.9 100 0.0 WNW 22 30 12 16 1012.6 1013.0 14.2
02/04:00am 5.9 0.8 5.9 100 0.0 WNW 22 35 12 19 1012.5 1012.9 14.2
02/03:30am 5.8 0.3 5.8 100 0.0 W 24 33 13 18 1012.3 1012.7 14.0
02/03:00am 5.7 0.2 5.7 100 0.0 W 24 35 13 19 1012.1 1012.5 14.0
02/02:30am 6.0 0.1 6.0 100 0.0 W 26 37 14 20 1011.5 1011.8 14.0
02/02:00am 6.2 -0.8 6.2 100 0.0 WNW 32 46 17 25 1010.9 1011.3 14.0
02/01:52am 6.2 -1.3 6.2 100 0.0 W 35 54 19 29 1010.7 1011.1 14.0
02/01:30am 6.3 -1.2 6.3 100 0.0 WNW 35 50 19 27 1010.2 1010.6 14.0
02/01:00am 6.3 -2.7 6.3 100 0.0 W 43 63 23 34 1009.9 1010.2 14.0
02/12:53am 6.6 -1.6 6.6 100 0.0 W 39 57 21 31 1010.0 1010.4 14.0
02/12:30am 6.4 -2.2 6.4 100 0.0 W 41 56 22 30 1009.9 1010.2 13.4
02/12:00am 6.7 -1.5 6.7 100 0.0 WNW 39 59 21 32 1010.1 1010.5 13.4
 
Date/Time
CST
Temp
°C
App
Temp
°C
Dew
Point
°C
Rel
Hum
%
Delta-T
°C
Wind Press
QNH
hPa
Press
MSL
hPa
Rain since
9am
mm
Dir  Spd
km/h
Gust
km/h
Spd
kts
Gust
kts
01/11:30pm 7.3 -1.1 7.3 100 0.0 WNW 41 61 22 33 1010.0 1010.4 13.4
01/11:29pm 7.3 -0.7 7.3 100 0.0 WNW 39 59 21 32 1010.1 1010.5 13.2
01/11:00pm 6.8 -2.1 6.8 100 0.0 WNW 43 57 23 31 1009.9 1010.2 12.8
01/10:31pm 6.7 -1.1 6.7 100 0.0 WNW 37 57 20 31 1009.9 1010.2 12.8
01/10:30pm 6.8 -1.0 6.8 100 0.0 WNW 37 52 20 28 1009.9 1010.2 12.8
01/10:00pm 6.8 -1.0 6.8 100 0.0 WNW 37 54 20 29 1009.8 1010.1 12.8
01/09:54pm 6.7 -0.1 6.7 100 0.0 WNW 32 52 17 28 1009.8 1010.1 12.8
01/09:30pm 6.7 -0.1 6.7 100 0.0 WNW 32 44 17 24 1009.8 1010.1 12.8
01/09:00pm 7.1 -1.7 7.1 100 0.0 W 43 69 23 37 1009.3 1009.6 12.4
01/08:32pm 7.5 0.7 7.5 100 0.0 WNW 33 52 18 28 1008.7 1009.1 8.6
01/08:30pm 7.3 0.0 7.3 100 0.0 WNW 35 52 19 28 1008.8 1009.2 8.6
01/08:00pm 7.2 -1.2 7.2 100 0.0 W 41 61 22 33 1008.5 1008.9 6.6
01/07:33pm 7.2 -0.1 7.2 100 0.0 W 35 54 19 29 1008.6 1009.0 5.0
01/07:30pm 7.3 0.0 7.3 100 0.0 W 35 52 19 28 1008.8 1009.2 4.4
01/07:00pm 7.9 0.4 7.9 100 0.0 W 37 61 20 33 1008.5 1008.9 2.0
01/06:30pm 8.8 0.4 8.8 100 0.0 W 43 76 23 41 1007.6 1007.9 0.4
01/06:00pm 9.6 1.8 9.6 100 0.0 W 41 67 22 36 1007.4 1007.7 0.0
01/05:30pm 10.5 2.1 9.1 91 0.7 W 43 65 23 35 1006.5 1006.8 0.0
01/05:20pm 10.9 1.9 9.0 88 1.0 W 46 70 25 38 1006.4 1006.7 0.0
01/05:19pm 11.0 2.0 8.9 87 1.1 W 46 70 25 38 1006.5 1006.8 0.0
01/05:06pm 13.3 3.9 7.3 67 3.0 WNW 46 85 25 46 1005.7 1006.0 0.0
01/05:05pm 13.6 4.6 7.2 65 3.2 WNW 44 85 24 46 1005.1 1005.3 0.0
01/05:03pm 14.5 6.1 5.8 56 4.3 WNW 39 69 21 37 1005.7 1006.0 0.0
01/05:00pm 14.7 6.7 5.5 54 4.5 WNW 37 54 20 29 1005.8 1006.1 0.0
01/04:45pm 14.9 7.7 5.1 52 4.7 NW 32 65 17 35 1005.7 1006.0 0.0
01/04:30pm 14.7 8.4 5.5 54 4.5 NW 28 39 15 21 1006.0 1006.3 0.0
01/04:00pm 14.9 9.4 6.0 55 4.4 NW 24 43 13 23 1006.0 1006.3 0.0

Other formats

Comma delimited format used in spreadsheet applications
http://www.bom.gov.au/fwo/IDS60801/IDS60801.94678.axf

JavaScript Object Notation format (JSON) in row-major order
http://www.bom.gov.au/fwo/IDS60801/IDS60801.94678.json

Data quality

Most of these data are generated automatically and are frequently updated. Quality checks on data are not normally performed. It is possible for incorrect values to appear. Refer to information at About Latest Weather Observations and please check the disclaimer before using these data.